sensor_id;sensor_type;location;lat;lon;timestamp;pressure;altitude;pressure_sealevel;temperature;humidity
30714;BME280;17465;47.934;33.430;2022-09-28T00:01:58;98670.00;;;17.36;100.00
30714;BME280;17465;47.934;33.430;2022-09-28T00:04:28;98670.00;;;17.36;100.00
30714;BME280;17465;47.934;33.430;2022-09-28T00:06:59;98681.42;;;17.47;100.00
30714;BME280;17465;47.934;33.430;2022-09-28T00:09:30;98685.22;;;17.56;100.00
30714;BME280;17465;47.934;33.430;2022-09-28T00:12:01;98697.47;;;17.47;100.00
30714;BME280;17465;47.934;33.430;2022-09-28T00:14:31;98702.05;;;17.45;100.00
30714;BME280;17465;47.934;33.430;2022-09-28T00:17:02;98702.05;;;17.45;100.00
30714;BME280;17465;47.934;33.430;2022-09-28T00:19:32;98699.26;;;17.31;100.00
30714;BME280;17465;47.934;33.430;2022-09-28T00:22:04;98701.85;;;17.44;100.00
30714;BME280;17465;47.934;33.430;2022-09-28T00:24:35;98700.06;;;17.46;100.00
30714;BME280;17465;47.934;33.430;2022-09-28T00:27:05;98686.05;;;17.35;100.00
30714;BME280;17465;47.934;33.430;2022-09-28T00:29:37;98686.05;;;17.35;100.00
30714;BME280;17465;47.934;33.430;2022-09-28T00:32:09;98690.66;;;17.37;100.00
30714;BME280;17465;47.934;33.430;2022-09-28T00:34:41;98691.19;;;17.19;100.00
30714;BME280;17465;47.934;33.430;2022-09-28T00:37:13;98695.81;;;17.28;100.00
30714;BME280;17465;47.934;33.430;2022-09-28T00:39:44;98695.81;;;17.28;100.00
30714;BME280;17465;47.934;33.430;2022-09-28T00:45:09;98698.20;;;17.30;100.00
30714;BME280;17465;47.934;33.430;2022-09-28T00:47:42;98680.58;;;17.12;100.00
30714;BME280;17465;47.934;33.430;2022-09-28T00:50:27;98669.16;;;17.11;100.00
30714;BME280;17465;47.934;33.430;2022-09-28T00:55:48;98665.16;;;16.98;100.00
30714;BME280;17465;47.934;33.430;2022-09-28T00:58:25;98672.18;;;17.05;100.00
30714;BME280;17465;47.934;33.430;2022-09-28T01:00:57;98672.18;;;17.05;100.00
30714;BME280;17465;47.934;33.430;2022-09-28T01:03:28;98679.77;;;17.04;100.00
30714;BME280;17465;47.934;33.430;2022-09-28T01:06:02;98698.77;;;16.88;100.00
30714;BME280;17465;47.934;33.430;2022-09-28T01:11:24;98695.38;;;16.92;100.00
30714;BME280;17465;47.934;33.430;2022-09-28T01:13:57;98695.38;;;16.92;100.00
30714;BME280;17465;47.934;33.430;2022-09-28T01:16:43;98698.13;;;16.74;100.00
30714;BME280;17465;47.934;33.430;2022-09-28T01:22:15;98692.52;;;16.78;100.00
30714;BME280;17465;47.934;33.430;2022-09-28T01:28:05;98694.31;;;16.66;100.00
30714;BME280;17465;47.934;33.430;2022-09-28T01:30:42;98681.64;;;16.52;100.00
30714;BME280;17465;47.934;33.430;2022-09-28T01:33:16;98681.64;;;16.52;100.00
30714;BME280;17465;47.934;33.430;2022-09-28T01:35:54;98681.12;;;16.29;100.00
30714;BME280;17465;47.934;33.430;2022-09-28T01:38:28;98688.02;;;16.38;100.00
30714;BME280;17465;47.934;33.430;2022-09-28T01:40:59;98691.19;;;16.37;100.00
30714;BME280;17465;47.934;33.430;2022-09-28T01:43:32;98688.02;;;16.38;100.00
30714;BME280;17465;47.934;33.430;2022-09-28T01:46:20;98688.02;;;16.38;100.00
30714;BME280;17465;47.934;33.430;2022-09-28T01:49:04;98693.72;;;16.29;100.00
30714;BME280;17465;47.934;33.430;2022-09-28T01:51:55;98693.50;;;16.24;100.00
30714;BME280;17465;47.934;33.430;2022-09-28T01:54:37;98697.70;;;16.21;100.00
30714;BME280;17465;47.934;33.430;2022-09-28T01:57:14;98700.00;;;16.39;100.00
30714;BME280;17465;47.934;33.430;2022-09-28T01:59:52;98696.51;;;16.25;100.00
30714;BME280;17465;47.934;33.430;2022-09-28T02:02:21;98696.51;;;16.25;100.00
30714;BME280;17465;47.934;33.430;2022-09-28T02:04:54;98701.85;;;16.14;100.00
30714;BME280;17465;47.934;33.430;2022-09-28T02:07:43;98701.85;;;16.14;100.00
30714;BME280;17465;47.934;33.430;2022-09-28T02:10:18;98693.54;;;16.28;100.00
30714;BME280;17465;47.934;33.430;2022-09-28T02:12:55;98704.58;;;16.34;100.00
30714;BME280;17465;47.934;33.430;2022-09-28T02:15:41;98712.33;;;16.31;100.00
30714;BME280;17465;47.934;33.430;2022-09-28T02:18:11;98701.94;;;16.28;100.00
30714;BME280;17465;47.934;33.430;2022-09-28T02:20:51;98693.38;;;16.34;100.00
30714;BME280;17465;47.934;33.430;2022-09-28T02:23:16;98692.59;;;16.33;100.00
30714;BME280;17465;47.934;33.430;2022-09-28T02:25:51;98692.59;;;16.33;100.00
30714;BME280;17465;47.934;33.430;2022-09-28T02:28:21;98701.56;;;16.33;100.00
30714;BME280;17465;47.934;33.430;2022-09-28T02:30:52;98701.56;;;16.33;100.00
30714;BME280;17465;47.934;33.430;2022-09-28T02:33:46;98677.89;;;16.20;100.00
30714;BME280;17465;47.934;33.430;2022-09-28T02:35:57;98678.30;;;16.22;100.00
30714;BME280;17465;47.934;33.430;2022-09-28T02:38:30;98684.33;;;16.31;100.00
30714;BME280;17465;47.934;33.430;2022-09-28T02:41:29;98687.48;;;16.15;100.00
30714;BME280;17465;47.934;33.430;2022-09-28T02:47:03;98700.50;;;16.24;100.00
30714;BME280;17465;47.934;33.430;2022-09-28T02:49:47;98701.91;;;16.24;100.00
30714;BME280;17465;47.934;33.430;2022-09-28T03:03:49;98699.31;;;16.25;100.00
30714;BME280;17465;47.934;33.430;2022-09-28T03:06:52;98697.98;;;16.32;100.00
30714;BME280;17465;47.934;33.430;2022-09-28T03:09:25;98707.41;;;16.41;100.00
30714;BME280;17465;47.934;33.430;2022-09-28T03:11:57;98709.59;;;16.38;100.00
30714;BME280;17465;47.934;33.430;2022-09-28T03:14:28;98709.59;;;16.38;100.00
30714;BME280;17465;47.934;33.430;2022-09-28T03:16:59;98709.59;;;16.38;100.00
30714;BME280;17465;47.934;33.430;2022-09-28T03:19:31;98709.06;;;16.18;100.00
30714;BME280;17465;47.934;33.430;2022-09-28T03:22:02;98705.21;;;16.06;100.00
30714;BME280;17465;47.934;33.430;2022-09-28T03:24:33;98706.71;;;16.24;100.00
30714;BME280;17465;47.934;33.430;2022-09-28T03:27:03;98709.62;;;16.07;100.00
30714;BME280;17465;47.934;33.430;2022-09-28T03:29:33;98716.67;;;16.18;100.00
30714;BME280;17465;47.934;33.430;2022-09-28T03:32:04;98718.48;;;16.20;100.00
30714;BME280;17465;47.934;33.430;2022-09-28T03:34:35;98721.70;;;16.22;100.00
30714;BME280;17465;47.934;33.430;2022-09-28T03:37:05;98721.70;;;16.22;100.00
30714;BME280;17465;47.934;33.430;2022-09-28T03:39:36;98709.42;;;16.10;100.00
30714;BME280;17465;47.934;33.430;2022-09-28T03:42:07;98709.42;;;16.10;100.00
30714;BME280;17465;47.934;33.430;2022-09-28T03:44:37;98713.66;;;16.13;100.00
30714;BME280;17465;47.934;33.430;2022-09-28T03:47:08;98715.06;;;16.13;100.00
30714;BME280;17465;47.934;33.430;2022-09-28T03:49:39;98715.06;;;16.13;100.00
30714;BME280;17465;47.934;33.430;2022-09-28T03:52:09;98717.45;;;16.15;100.00
30714;BME280;17465;47.934;33.430;2022-09-28T03:54:40;98721.39;;;16.07;100.00
30714;BME280;17465;47.934;33.430;2022-09-28T03:57:12;98721.39;;;16.07;100.00
30714;BME280;17465;47.934;33.430;2022-09-28T03:59:44;98706.20;;;16.04;100.00
30714;BME280;17465;47.934;33.430;2022-09-28T04:02:14;98709.41;;;16.06;100.00
30714;BME280;17465;47.934;33.430;2022-09-28T04:04:45;98704.02;;;16.07;100.00
30714;BME280;17465;47.934;33.430;2022-09-28T04:07:15;98700.61;;;16.08;100.00
30714;BME280;17465;47.934;33.430;2022-09-28T04:09:46;98705.00;;;16.02;100.00
30714;BME280;17465;47.934;33.430;2022-09-28T04:12:17;98703.41;;;16.08;100.00
30714;BME280;17465;47.934;33.430;2022-09-28T04:14:48;98703.41;;;16.08;100.00
30714;BME280;17465;47.934;33.430;2022-09-28T04:17:18;98710.55;;;15.98;100.00
30714;BME280;17465;47.934;33.430;2022-09-28T04:19:49;98719.35;;;15.97;100.00
30714;BME280;17465;47.934;33.430;2022-09-28T04:22:19;98719.35;;;15.97;100.00
30714;BME280;17465;47.934;33.430;2022-09-28T04:24:56;98722.77;;;16.00;100.00
30714;BME280;17465;47.934;33.430;2022-09-28T04:27:34;98729.09;;;15.90;100.00
30714;BME280;17465;47.934;33.430;2022-09-28T04:30:05;98726.66;;;15.85;100.00
30714;BME280;17465;47.934;33.430;2022-09-28T04:32:36;98724.69;;;15.89;100.00
30714;BME280;17465;47.934;33.430;2022-09-28T04:35:10;98724.69;;;15.89;100.00
30714;BME280;17465;47.934;33.430;2022-09-28T04:37:42;98726.27;;;15.83;100.00
30714;BME280;17465;47.934;33.430;2022-09-28T04:40:12;98736.28;;;15.88;100.00
30714;BME280;17465;47.934;33.430;2022-09-28T04:42:43;98733.47;;;15.84;100.00
30714;BME280;17465;47.934;33.430;2022-09-28T04:45:14;98733.85;;;15.86;100.00
30714;BME280;17465;47.934;33.430;2022-09-28T04:47:45;98739.72;;;15.94;100.00
30714;BME280;17465;47.934;33.430;2022-09-28T04:50:15;98734.53;;;15.96;100.00
30714;BME280;17465;47.934;33.430;2022-09-28T04:52:45;98728.17;;;16.02;100.00
30714;BME280;17465;47.934;33.430;2022-09-28T04:55:16;98728.17;;;16.02;100.00
30714;BME280;17465;47.934;33.430;2022-09-28T04:57:46;98721.59;;;16.04;100.00
30714;BME280;17465;47.934;33.430;2022-09-28T05:00:16;98730.55;;;16.00;100.00
30714;BME280;17465;47.934;33.430;2022-09-28T05:02:49;98726.27;;;15.83;100.00
30714;BME280;17465;47.934;33.430;2022-09-28T05:05:19;98729.57;;;16.02;100.00
30714;BME280;17465;47.934;33.430;2022-09-28T05:07:50;98722.42;;;16.12;100.00
30714;BME280;17465;47.934;33.430;2022-09-28T05:13:08;98719.05;;;16.12;100.00
30714;BME280;17465;47.934;33.430;2022-09-28T05:15:42;98718.28;;;16.22;100.00
30714;BME280;17465;47.934;33.430;2022-09-28T05:18:13;98708.11;;;16.24;100.00
30714;BME280;17465;47.934;33.430;2022-09-28T05:20:44;98708.11;;;16.24;100.00
30714;BME280;17465;47.934;33.430;2022-09-28T05:23:21;98698.02;;;16.43;100.00
30714;BME280;17465;47.934;33.430;2022-09-28T05:25:59;98707.66;;;16.56;100.00
30714;BME280;17465;47.934;33.430;2022-09-28T05:28:39;98707.98;;;16.37;100.00
30714;BME280;17465;47.934;33.430;2022-09-28T05:31:18;98707.05;;;16.49;100.00
30714;BME280;17465;47.934;33.430;2022-09-28T05:33:48;98672.03;;;16.49;100.00
30714;BME280;17465;47.934;33.430;2022-09-28T05:36:19;98692.96;;;16.83;100.00
30714;BME280;17465;47.934;33.430;2022-09-28T09:19:45;98773.91;;;19.70;100.00
30714;BME280;17465;47.934;33.430;2022-09-28T09:22:20;98794.43;;;19.67;100.00
30714;BME280;17465;47.934;33.430;2022-09-28T09:25:05;98794.43;;;19.67;100.00
30714;BME280;17465;47.934;33.430;2022-09-28T09:27:51;98776.80;;;19.59;100.00
30714;BME280;17465;47.934;33.430;2022-09-28T09:30:20;98776.80;;;19.59;100.00
30714;BME280;17465;47.934;33.430;2022-09-28T09:33:12;98777.81;;;19.57;100.00
30714;BME280;17465;47.934;33.430;2022-09-28T09:35:52;98775.23;;;19.77;100.00
30714;BME280;17465;47.934;33.430;2022-09-28T09:38:34;98773.28;;;19.45;100.00
30714;BME280;17465;47.934;33.430;2022-09-28T09:46:40;98764.56;;;19.54;100.00
30714;BME280;17465;47.934;33.430;2022-09-28T09:54:36;98766.02;;;19.08;100.00
30714;BME280;17465;47.934;33.430;2022-09-28T09:57:02;98766.02;;;19.08;100.00
30714;BME280;17465;47.934;33.430;2022-09-28T09:59:36;98760.42;;;19.05;100.00
30714;BME280;17465;47.934;33.430;2022-09-28T10:02:23;98761.80;;;19.15;100.00
30714;BME280;17465;47.934;33.430;2022-09-28T10:07:44;98762.23;;;19.14;100.00
30714;BME280;17465;47.934;33.430;2022-09-28T10:10:23;98754.05;;;19.36;100.00
30714;BME280;17465;47.934;33.430;2022-09-28T10:12:53;98760.53;;;19.26;100.00
30714;BME280;17465;47.934;33.430;2022-09-28T10:15:32;98760.53;;;19.26;100.00
30714;BME280;17465;47.934;33.430;2022-09-28T10:18:08;98760.39;;;19.12;100.00
30714;BME280;17465;47.934;33.430;2022-09-28T10:20:36;98757.18;;;19.45;100.00
30714;BME280;17465;47.934;33.430;2022-09-28T10:23:27;98761.27;;;19.37;100.00
30714;BME280;17465;47.934;33.430;2022-09-28T10:25:43;98761.27;;;19.37;100.00
30714;BME280;17465;47.934;33.430;2022-09-28T10:28:22;98751.66;;;19.31;100.00
30714;BME280;17465;47.934;33.430;2022-09-28T10:30:48;98751.34;;;19.19;100.00
30714;BME280;17465;47.934;33.430;2022-09-28T10:33:29;98748.03;;;19.34;100.00
30714;BME280;17465;47.934;33.430;2022-09-28T10:36:01;98748.03;;;19.34;100.00
30714;BME280;17465;47.934;33.430;2022-09-28T10:38:34;98745.05;;;19.26;100.00
30714;BME280;17465;47.934;33.430;2022-09-28T10:41:12;98739.59;;;19.34;100.00
30714;BME280;17465;47.934;33.430;2022-09-28T10:43:55;98738.96;;;19.38;100.00
30714;BME280;17465;47.934;33.430;2022-09-28T10:46:29;98749.52;;;19.49;100.00
30714;BME280;17465;47.934;33.430;2022-09-28T10:49:05;98743.39;;;19.83;100.00
30714;BME280;17465;47.934;33.430;2022-09-28T10:54:15;98743.32;;;19.72;100.00
30714;BME280;17465;47.934;33.430;2022-09-28T10:56:46;98739.88;;;19.72;100.00
30714;BME280;17465;47.934;33.430;2022-09-28T11:02:27;98743.67;;;19.77;100.00
30714;BME280;17465;47.934;33.430;2022-09-28T11:05:01;98743.67;;;19.77;100.00
30714;BME280;17465;47.934;33.430;2022-09-28T11:07:42;98738.13;;;19.67;100.00
30714;BME280;17465;47.934;33.430;2022-09-28T11:10:15;98741.56;;;20.10;100.00
30714;BME280;17465;47.934;33.430;2022-09-28T11:12:41;98741.56;;;20.10;100.00
30714;BME280;17465;47.934;33.430;2022-09-28T11:15:18;98755.72;;;19.78;100.00
30714;BME280;17465;47.934;33.430;2022-09-28T11:17:49;98746.68;;;19.78;100.00
30714;BME280;17465;47.934;33.430;2022-09-28T11:23:16;98741.48;;;19.95;100.00
30714;BME280;17465;47.934;33.430;2022-09-28T11:26:06;98747.95;;;19.92;100.00
30714;BME280;17465;47.934;33.430;2022-09-28T11:28:38;98741.73;;;19.93;100.00
30714;BME280;17465;47.934;33.430;2022-09-28T11:31:09;98743.89;;;20.00;100.00
30714;BME280;17465;47.934;33.430;2022-09-28T11:33:44;98745.78;;;20.14;100.00
30714;BME280;17465;47.934;33.430;2022-09-28T11:39:06;98731.59;;;20.21;100.00
30714;BME280;17465;47.934;33.430;2022-09-28T11:42:00;98731.59;;;20.21;100.00
30714;BME280;17465;47.934;33.430;2022-09-28T11:44:52;98718.73;;;20.20;100.00
30714;BME280;17465;47.934;33.430;2022-09-28T11:47:37;98723.62;;;21.38;100.00
30714;BME280;17465;47.934;33.430;2022-09-28T11:53:38;98733.74;;;22.00;100.00
30714;BME280;17465;47.934;33.430;2022-09-28T11:58:45;98735.85;;;23.08;93.05
30714;BME280;17465;47.934;33.430;2022-09-28T12:01:23;98743.05;;;21.63;100.00
30714;BME280;17465;47.934;33.430;2022-09-28T12:04:03;98749.39;;;21.82;100.00
30714;BME280;17465;47.934;33.430;2022-09-28T12:06:43;98749.39;;;21.82;100.00
30714;BME280;17465;47.934;33.430;2022-09-28T12:09:19;98748.16;;;21.71;100.00
30714;BME280;17465;47.934;33.430;2022-09-28T12:11:55;98753.82;;;21.56;100.00
30714;BME280;17465;47.934;33.430;2022-09-28T12:14:28;98749.92;;;21.06;100.00
30714;BME280;17465;47.934;33.430;2022-09-28T12:17:19;98758.00;;;20.55;100.00
30714;BME280;17465;47.934;33.430;2022-09-28T12:22:48;98749.16;;;20.35;100.00
30714;BME280;17465;47.934;33.430;2022-09-28T12:25:21;98743.95;;;20.33;100.00
30714;BME280;17465;47.934;33.430;2022-09-28T12:28:04;98748.12;;;20.19;100.00
30714;BME280;17465;47.934;33.430;2022-09-28T12:30:51;98747.45;;;20.26;100.00
30714;BME280;17465;47.934;33.430;2022-09-28T12:33:41;98747.45;;;20.26;100.00
30714;BME280;17465;47.934;33.430;2022-09-28T12:36:48;98748.58;;;20.32;100.00
30714;BME280;17465;47.934;33.430;2022-09-28T12:42:20;98749.80;;;20.49;100.00
30714;BME280;17465;47.934;33.430;2022-09-28T12:45:14;98760.67;;;20.32;100.00
30714;BME280;17465;47.934;33.430;2022-09-28T12:48:07;98760.67;;;20.32;100.00
30714;BME280;17465;47.934;33.430;2022-09-28T12:56:25;98768.45;;;20.18;100.00
30714;BME280;17465;47.934;33.430;2022-09-28T13:09:54;98758.33;;;22.57;100.00
30714;BME280;17465;47.934;33.430;2022-09-28T13:12:30;98761.52;;;24.04;90.34
30714;BME280;17465;47.934;33.430;2022-09-28T13:18:06;98754.17;;;23.39;94.23
30714;BME280;17465;47.934;33.430;2022-09-28T13:20:48;98760.19;;;23.92;92.75
30714;BME280;17465;47.934;33.430;2022-09-28T13:26:36;98771.56;;;24.45;91.00
30714;BME280;17465;47.934;33.430;2022-09-28T13:29:14;98771.56;;;24.45;91.00
30714;BME280;17465;47.934;33.430;2022-09-28T13:31:51;98783.00;;;25.67;82.60
30714;BME280;17465;47.934;33.430;2022-09-28T13:34:29;98794.03;;;25.65;80.49
30714;BME280;17465;47.934;33.430;2022-09-28T13:37:22;98793.59;;;24.77;84.36
30714;BME280;17465;47.934;33.430;2022-09-28T13:39:56;98791.52;;;24.57;89.14
30714;BME280;17465;47.934;33.430;2022-09-28T13:45:28;98791.89;;;23.87;91.21
30714;BME280;17465;47.934;33.430;2022-09-28T13:48:20;98795.60;;;22.41;100.00
30714;BME280;17465;47.934;33.430;2022-09-28T13:51:05;98789.06;;;21.98;100.00
30714;BME280;17465;47.934;33.430;2022-09-28T13:54:23;98789.06;;;21.98;100.00
30714;BME280;17465;47.934;33.430;2022-09-28T13:59:28;98794.76;;;21.41;100.00
30714;BME280;17465;47.934;33.430;2022-09-28T14:04:58;98783.02;;;21.02;100.00
30714;BME280;17465;47.934;33.430;2022-09-28T14:10:44;98783.84;;;20.65;100.00
30714;BME280;17465;47.934;33.430;2022-09-28T14:12:55;98775.92;;;20.35;100.00
30714;BME280;17465;47.934;33.430;2022-09-28T14:18:36;98766.06;;;20.35;100.00
30714;BME280;17465;47.934;33.430;2022-09-28T14:27:09;98777.84;;;19.79;100.00
30714;BME280;17465;47.934;33.430;2022-09-28T14:29:40;98780.13;;;19.69;100.00
30714;BME280;17465;47.934;33.430;2022-09-28T14:34:45;98784.03;;;19.57;100.00
30714;BME280;17465;47.934;33.430;2022-09-28T14:37:27;98784.03;;;19.57;100.00
30714;BME280;17465;47.934;33.430;2022-09-28T14:40:08;98781.22;;;19.60;100.00
30714;BME280;17465;47.934;33.430;2022-09-28T14:42:33;98780.83;;;19.58;100.00
30714;BME280;17465;47.934;33.430;2022-09-28T14:48:12;98784.27;;;19.54;100.00
30714;BME280;17465;47.934;33.430;2022-09-28T14:50:42;98784.27;;;19.54;100.00
30714;BME280;17465;47.934;33.430;2022-09-28T14:53:19;98784.69;;;19.49;100.00
30714;BME280;17465;47.934;33.430;2022-09-28T14:55:54;98784.38;;;19.37;100.00
30714;BME280;17465;47.934;33.430;2022-09-28T14:58:27;98784.38;;;19.37;100.00
30714;BME280;17465;47.934;33.430;2022-09-28T15:01:04;98786.59;;;19.37;100.00
30714;BME280;17465;47.934;33.430;2022-09-28T15:03:35;98793.86;;;19.31;100.00
30714;BME280;17465;47.934;33.430;2022-09-28T15:06:15;98817.77;;;19.31;100.00
30714;BME280;17465;47.934;33.430;2022-09-28T15:08:46;98803.34;;;19.22;100.00
30714;BME280;17465;47.934;33.430;2022-09-28T15:11:24;98805.96;;;19.21;100.00
30714;BME280;17465;47.934;33.430;2022-09-28T15:13:50;98806.16;;;19.22;100.00
30714;BME280;17465;47.934;33.430;2022-09-28T15:16:23;98806.16;;;19.22;100.00
30714;BME280;17465;47.934;33.430;2022-09-28T15:19:08;98811.86;;;19.02;100.00
30714;BME280;17465;47.934;33.430;2022-09-28T15:21:41;98811.86;;;19.02;100.00
30714;BME280;17465;47.934;33.430;2022-09-28T15:24:32;98829.80;;;18.86;100.00
30714;BME280;17465;47.934;33.430;2022-09-28T15:27:15;98831.82;;;18.82;100.00
30714;BME280;17465;47.934;33.430;2022-09-28T15:29:58;98831.82;;;18.82;100.00
30714;BME280;17465;47.934;33.430;2022-09-28T15:32:33;98840.88;;;18.81;100.00
30714;BME280;17465;47.934;33.430;2022-09-28T15:35:19;98837.67;;;18.79;100.00
30714;BME280;17465;47.934;33.430;2022-09-28T15:37:54;98841.70;;;18.71;100.00
30714;BME280;17465;47.934;33.430;2022-09-28T15:40:33;98841.70;;;18.71;100.00
30714;BME280;17465;47.934;33.430;2022-09-28T15:43:24;98851.75;;;18.69;100.00
30714;BME280;17465;47.934;33.430;2022-09-28T15:46:04;98846.28;;;18.77;100.00
30714;BME280;17465;47.934;33.430;2022-09-28T15:48:50;98846.53;;;18.64;100.00
30714;BME280;17465;47.934;33.430;2022-09-28T15:51:22;98846.53;;;18.64;100.00
30714;BME280;17465;47.934;33.430;2022-09-28T15:56:56;98864.02;;;18.49;100.00
30714;BME280;17465;47.934;33.430;2022-09-28T15:59:31;98852.78;;;18.42;100.00
30714;BME280;17465;47.934;33.430;2022-09-28T16:02:18;98863.84;;;18.38;100.00
30714;BME280;17465;47.934;33.430;2022-09-28T16:04:53;98863.84;;;18.38;100.00
30714;BME280;17465;47.934;33.430;2022-09-28T16:12:52;98873.07;;;18.42;100.00
30714;BME280;17465;47.934;33.430;2022-09-28T16:15:26;98890.73;;;18.46;100.00
30714;BME280;17465;47.934;33.430;2022-09-28T16:18:03;98886.52;;;18.46;100.00
30714;BME280;17465;47.934;33.430;2022-09-28T16:20:33;98883.30;;;18.44;100.00
30714;BME280;17465;47.934;33.430;2022-09-28T16:25:59;98891.92;;;18.48;100.00
30714;BME280;17465;47.934;33.430;2022-09-28T16:36:45;98894.52;;;18.51;100.00
30714;BME280;17465;47.934;33.430;2022-09-28T16:39:18;98894.52;;;18.51;100.00
30714;BME280;17465;47.934;33.430;2022-09-28T16:41:51;98901.35;;;18.46;100.00
30714;BME280;17465;47.934;33.430;2022-09-28T16:44:26;98903.16;;;18.48;100.00
30714;BME280;17465;47.934;33.430;2022-09-28T16:46:58;98904.13;;;18.67;100.00
30714;BME280;17465;47.934;33.430;2022-09-28T16:49:31;98916.38;;;18.65;100.00
30714;BME280;17465;47.934;33.430;2022-09-28T16:52:11;98920.84;;;18.49;100.00
30714;BME280;17465;47.934;33.430;2022-09-28T16:54:37;98923.24;;;18.47;100.00
30714;BME280;17465;47.934;33.430;2022-09-28T16:57:10;98930.66;;;18.35;100.00
30714;BME280;17465;47.934;33.430;2022-09-28T16:59:43;98923.20;;;18.19;100.00
30714;BME280;17465;47.934;33.430;2022-09-28T17:02:20;98928.00;;;18.18;100.00
30714;BME280;17465;47.934;33.430;2022-09-28T17:04:54;98926.84;;;18.26;100.00
30714;BME280;17465;47.934;33.430;2022-09-28T17:07:26;98926.84;;;18.26;100.00
30714;BME280;17465;47.934;33.430;2022-09-28T17:10:25;98928.86;;;18.26;100.00
30714;BME280;17465;47.934;33.430;2022-09-28T17:12:53;98934.81;;;18.07;100.00
30714;BME280;17465;47.934;33.430;2022-09-28T17:15:23;98934.81;;;18.07;100.00
30714;BME280;17465;47.934;33.430;2022-09-28T17:17:57;98948.27;;;18.18;100.00
30714;BME280;17465;47.934;33.430;2022-09-28T17:20:34;98943.22;;;17.97;100.00
30714;BME280;17465;47.934;33.430;2022-09-28T17:23:02;98949.66;;;18.07;100.00
30714;BME280;17465;47.934;33.430;2022-09-28T17:25:34;98959.86;;;17.92;100.00
30714;BME280;17465;47.934;33.430;2022-09-28T17:28:04;98955.04;;;17.86;100.00
30714;BME280;17465;47.934;33.430;2022-09-28T17:30:35;98950.23;;;17.93;100.00
30714;BME280;17465;47.934;33.430;2022-09-28T17:33:07;98953.63;;;17.89;100.00
30714;BME280;17465;47.934;33.430;2022-09-28T17:35:38;98950.57;;;17.67;100.00
30714;BME280;17465;47.934;33.430;2022-09-28T17:38:12;98957.92;;;17.52;100.00
30714;BME280;17465;47.934;33.430;2022-09-28T17:40:43;98954.33;;;17.55;100.00
30714;BME280;17465;47.934;33.430;2022-09-28T17:43:14;98966.95;;;17.48;100.00
30714;BME280;17465;47.934;33.430;2022-09-28T17:45:46;98965.72;;;17.45;100.00
30714;BME280;17465;47.934;33.430;2022-09-28T17:48:21;98963.91;;;17.43;100.00
30714;BME280;17465;47.934;33.430;2022-09-28T17:50:52;98969.96;;;17.49;100.00
30714;BME280;17465;47.934;33.430;2022-09-28T17:53:27;98969.96;;;17.49;100.00
30714;BME280;17465;47.934;33.430;2022-09-28T17:55:58;98971.73;;;17.44;100.00
30714;BME280;17465;47.934;33.430;2022-09-28T17:58:31;98978.13;;;17.37;100.00
30714;BME280;17465;47.934;33.430;2022-09-28T18:01:08;98978.70;;;17.37;100.00
30714;BME280;17465;47.934;33.430;2022-09-28T18:03:41;98990.47;;;17.29;100.00
30714;BME280;17465;47.934;33.430;2022-09-28T18:06:14;98990.47;;;17.29;100.00
30714;BME280;17465;47.934;33.430;2022-09-28T18:08:45;98994.61;;;17.19;100.00
30714;BME280;17465;47.934;33.430;2022-09-28T18:11:16;98989.00;;;17.19;100.00
30714;BME280;17465;47.934;33.430;2022-09-28T18:13:48;98991.97;;;17.13;100.00
30714;BME280;17465;47.934;33.430;2022-09-28T18:16:19;98991.97;;;17.13;100.00
30714;BME280;17465;47.934;33.430;2022-09-28T18:18:50;98995.38;;;17.12;100.00
30714;BME280;17465;47.934;33.430;2022-09-28T18:21:21;99005.77;;;17.08;100.00
30714;BME280;17465;47.934;33.430;2022-09-28T18:23:53;99000.15;;;17.05;100.00
30714;BME280;17465;47.934;33.430;2022-09-28T18:26:23;99006.07;;;16.96;100.00
30714;BME280;17465;47.934;33.430;2022-09-28T18:28:54;99011.88;;;16.94;100.00
30714;BME280;17465;47.934;33.430;2022-09-28T18:31:24;99011.88;;;16.94;100.00
30714;BME280;17465;47.934;33.430;2022-09-28T18:33:59;99014.48;;;16.96;100.00
30714;BME280;17465;47.934;33.430;2022-09-28T18:36:31;99014.11;;;16.98;100.00
30714;BME280;17465;47.934;33.430;2022-09-28T18:39:02;99027.52;;;16.98;100.00
30714;BME280;17465;47.934;33.430;2022-09-28T18:41:32;99016.89;;;16.95;100.00
30714;BME280;17465;47.934;33.430;2022-09-28T18:44:03;99017.28;;;16.96;100.00
30714;BME280;17465;47.934;33.430;2022-09-28T18:46:33;99014.48;;;16.96;100.00
30714;BME280;17465;47.934;33.430;2022-09-28T18:49:04;99023.08;;;16.94;100.00
30714;BME280;17465;47.934;33.430;2022-09-28T18:51:35;99027.28;;;16.94;100.00
30714;BME280;17465;47.934;33.430;2022-09-28T18:54:06;99030.55;;;16.73;100.00
30714;BME280;17465;47.934;33.430;2022-09-28T18:56:36;99024.75;;;16.75;100.00
30714;BME280;17465;47.934;33.430;2022-09-28T18:59:08;99025.53;;;16.76;100.00
30714;BME280;17465;47.934;33.430;2022-09-28T19:01:47;99025.53;;;16.76;100.00
30714;BME280;17465;47.934;33.430;2022-09-28T19:04:23;99030.89;;;16.68;100.00
30714;BME280;17465;47.934;33.430;2022-09-28T19:06:53;99030.89;;;16.68;100.00
30714;BME280;17465;47.934;33.430;2022-09-28T19:09:25;99041.30;;;16.47;100.00
30714;BME280;17465;47.934;33.430;2022-09-28T19:12:01;99040.25;;;16.42;100.00
30714;BME280;17465;47.934;33.430;2022-09-28T19:14:29;99040.25;;;16.42;100.00
30714;BME280;17465;47.934;33.430;2022-09-28T19:17:00;99028.05;;;16.24;100.00
30714;BME280;17465;47.934;33.430;2022-09-28T19:19:42;99028.05;;;16.24;100.00